Time;durP1;ratioP1;P1;durP2;ratioP2;P2;SDS_P1;SDS_P2;PMS_P1;PMS_P2;Temp;Humidity;BMP_temperature;BMP_pressure;BME280_temperature;BME280_humidity;BME280_pressure;Samples;Min_cycle;Max_cycle;Signal;HPM_P1;HPM_P2
2022/01/01 00:00:06;;;;;;;5.23;3.10;;;;;;;12.42;33.74;97816.81;5089984;28;20313;-69
2022/01/01 00:02:38;;;;;;;4.30;3.40;;;;;;;11.99;34.16;97805.16;5074195;28;20048;-70
2022/01/01 00:05:06;;;;;;;10.80;5.77;;;;;;;12.34;34.01;97793.94;5056676;28;20142;-69
2022/01/01 00:07:39;;;;;;;3.47;2.53;;;;;;;11.97;33.91;97794.72;5056302;28;20051;-69
2022/01/01 00:10:08;;;;;;;3.37;2.23;;;;;;;12.33;34.03;97802.91;5073198;28;20060;-69
2022/01/01 00:12:34;;;;;;;15.73;8.00;;;;;;;12.24;33.92;97795.41;5073175;28;20123;-70
2022/01/01 00:15:00;;;;;;;5.10;3.50;;;;;;;12.15;34.18;97792.19;5039960;28;20048;-70
2022/01/01 00:17:26;;;;;;;2.33;2.13;;;;;;;12.10;34.05;97796.50;5089706;28;20096;-69
2022/01/01 00:19:51;;;;;;;1.90;1.40;;;;;;;11.81;33.81;97755.28;5072117;28;20043;-70
2022/01/01 00:22:18;;;;;;;5.43;4.00;;;;;;;12.32;33.86;97785.31;5054345;28;20510;-70
2022/01/01 00:24:44;;;;;;;5.57;3.03;;;;;;;12.02;34.16;97781.63;5086618;28;20430;-73
2022/01/01 00:27:10;;;;;;;4.33;3.50;;;;;;;12.12;34.19;97778.47;5069942;28;20112;-72
2022/01/01 00:29:35;;;;;;;8.20;4.63;;;;;;;12.14;34.54;97787.06;5069952;28;20403;-71
2022/01/01 00:32:01;;;;;;;5.80;3.83;;;;;;;12.19;34.27;97790.75;5054370;28;20423;-72
2022/01/01 00:34:27;;;;;;;13.77;6.77;;;;;;;12.12;34.08;97786.44;5088202;28;20071;-70
2022/01/01 00:36:53;;;;;;;10.07;5.67;;;;;;;12.07;34.28;97781.78;5073214;28;20044;-71
2022/01/01 00:39:18;;;;;;;5.27;3.60;;;;;;;11.95;34.55;97751.53;5056449;28;20531;-72
2022/01/01 00:41:44;;;;;;;1.27;1.17;;;;;;;11.89;34.35;97734.59;5073201;28;20070;-77
2022/01/01 00:44:10;;;;;;;4.60;3.57;;;;;;;12.15;34.37;97767.44;5039459;28;20044;-69
2022/01/01 00:46:36;;;;;;;5.80;3.70;;;;;;;12.21;34.50;97771.91;5087439;28;20043;-70
2022/01/01 00:49:01;;;;;;;5.97;4.60;;;;;;;12.19;34.39;97757.97;5069980;28;20563;-70
2022/01/01 00:51:27;;;;;;;10.00;5.60;;;;;;;12.31;34.43;97764.25;5053803;28;20032;-70
2022/01/01 00:53:53;;;;;;;9.57;5.17;;;;;;;12.21;34.51;97761.25;5086896;28;20040;-70
2022/01/01 00:56:19;;;;;;;8.77;4.60;;;;;;;11.96;34.43;97726.59;5070119;28;20044;-70
2022/01/01 00:58:44;;;;;;;9.53;5.43;;;;;;;11.95;34.35;97722.28;5037035;28;20071;-70
2022/01/01 01:01:10;;;;;;;5.93;3.43;;;;;;;12.24;34.40;97761.63;5054411;28;20058;-69
2022/01/01 01:03:36;;;;;;;5.70;3.73;;;;;;;12.23;34.40;97746.69;5089318;28;20042;-70
2022/01/01 01:06:02;;;;;;;4.10;2.80;;;;;;;12.25;34.37;97747.31;5089233;28;20090;-69
2022/01/01 01:08:28;;;;;;;7.63;4.07;;;;;;;12.37;34.42;97742.91;5054788;28;20409;-70
2022/01/01 01:10:56;;;;;;;4.67;3.00;;;;;;;12.46;34.52;97740.78;5071963;28;20142;-70
2022/01/01 01:13:22;;;;;;;5.27;3.63;;;;;;;12.40;34.39;97739.00;5088946;28;20097;-69
2022/01/01 01:15:48;;;;;;;5.00;3.50;;;;;;;12.19;34.65;97729.53;5055607;28;20040;-70
2022/01/01 01:18:14;;;;;;;11.90;5.77;;;;;;;12.21;34.56;97743.41;5089383;28;20089;-68
2022/01/01 01:20:40;;;;;;;10.13;5.10;;;;;;;12.29;34.78;97727.19;5055449;28;20103;-71
2022/01/01 01:23:06;;;;;;;3.53;2.73;;;;;;;12.27;34.68;97705.31;5088901;28;20479;-70
2022/01/01 01:25:39;;;;;;;1.90;1.53;;;;;;;12.42;34.66;97740.44;5088852;28;20131;-70
2022/01/01 01:28:07;;;;;;;2.30;2.10;;;;;;;12.64;34.79;97743.56;5088693;28;20056;-70
2022/01/01 01:30:35;;;;;;;1.43;1.33;;;;;;;12.71;34.63;97707.84;5088641;28;20447;-70
2022/01/01 01:33:01;;;;;;;4.13;2.53;;;;;;;12.68;34.71;97732.25;5055369;28;20111;-71
2022/01/01 01:35:28;;;;;;;2.40;1.67;;;;;;;12.70;34.79;97727.50;5072225;28;20075;-71
2022/01/01 01:37:53;;;;;;;2.37;1.83;;;;;;;12.47;35.04;97729.13;5088291;28;20483;-69
2022/01/01 01:40:19;;;;;;;3.20;2.00;;;;;;;12.51;34.91;97725.00;5090464;28;20068;-72
2022/01/01 01:42:47;;;;;;;4.80;3.13;;;;;;;12.46;35.05;97712.34;5075294;28;20050;-69
2022/01/01 01:45:18;;;;;;;1.77;1.53;;;;;;;12.63;34.75;97720.59;5091749;28;20044;-70
2022/01/01 01:47:45;;;;;;;1.55;1.45;;;;;;;12.67;34.78;97687.19;5059024;28;20071;-71
2022/01/01 01:50:12;;;;;;;2.30;1.80;;;;;;;13.03;34.73;97728.06;5092082;28;20040;-69
2022/01/01 01:52:39;;;;;;;3.73;2.53;;;;;;;12.85;34.67;97679.22;5075206;28;20047;-70
2022/01/01 01:55:09;;;;;;;3.43;2.63;;;;;;;13.12;34.69;97717.91;5091678;28;20040;-71
2022/01/01 01:57:36;;;;;;;1.57;1.47;;;;;;;13.04;34.71;97713.69;5058340;28;20071;-70
2022/01/01 02:00:12;;;;;;;1.50;1.40;;;;;;;12.86;34.85;97679.00;5075309;28;20055;-71
2022/01/01 02:02:39;;;;;;;2.17;1.53;;;;;;;12.77;34.77;97728.28;5075683;28;20040;-70
2022/01/01 02:05:05;;;;;;;6.10;2.93;;;;;;;12.92;34.92;97722.59;5075014;28;20127;-72
2022/01/01 02:07:31;;;;;;;2.43;2.17;;;;;;;12.90;34.71;97728.13;5058214;28;20461;-71
2022/01/01 02:09:57;;;;;;;7.17;2.70;;;;;;;12.98;34.80;97724.38;5058695;28;20066;-71
2022/01/01 02:12:23;;;;;;;3.47;2.40;;;;;;;12.82;34.69;97717.75;5075437;28;20039;-70
2022/01/01 02:15:06;;;;;;;4.57;3.07;;;;;;;12.96;34.64;97721.94;5092622;28;20071;-72
2022/01/01 02:17:32;;;;;;;5.40;2.17;;;;;;;12.86;34.69;97715.47;5092527;28;20043;-70
2022/01/01 02:20:04;;;;;;;2.27;1.83;;;;;;;13.28;34.72;97714.69;5075445;28;20411;-70
2022/01/01 02:22:50;;;;;;;1.70;1.60;;;;;;;13.63;34.01;97714.88;5092471;28;20059;-69
2022/01/01 02:25:19;;;;;;;2.67;1.60;;;;;;;13.34;34.62;97717.28;5093966;28;20101;-69
2022/01/01 02:27:46;;;;;;;7.40;3.20;;;;;;;13.28;34.54;97712.03;5058763;28;20040;-70
2022/01/01 02:30:14;;;;;;;2.73;1.93;;;;;;;13.42;34.58;97708.97;5075502;28;20047;-69
2022/01/01 02:32:40;;;;;;;1.37;1.27;;;;;;;12.99;34.79;97710.84;5092076;28;20066;-70
2022/01/01 02:35:09;;;;;;;6.60;3.70;;;;;;;13.38;34.36;97704.31;5058741;28;20410;-70
2022/01/01 02:37:38;;;;;;;4.10;2.83;;;;;;;13.32;34.70;97716.69;5092287;28;20071;-70
2022/01/01 02:40:05;;;;;;;2.67;1.57;;;;;;;13.31;34.51;97712.41;5090716;28;20040;-70
2022/01/01 02:42:30;;;;;;;3.63;2.27;;;;;;;13.02;34.62;97710.44;5089824;28;20043;-70
2022/01/01 02:44:58;;;;;;;4.80;2.60;;;;;;;13.01;34.54;97706.16;5072787;28;20073;-69
2022/01/01 02:47:24;;;;;;;1.73;1.63;;;;;;;13.03;34.55;97713.91;5073190;28;20044;-72
2022/01/01 02:49:50;;;;;;;5.97;3.87;;;;;;;13.02;34.50;97718.41;5073015;28;20051;-72
2022/01/01 02:52:16;;;;;;;4.03;2.63;;;;;;;13.06;34.61;97716.13;5072903;28;20135;-71
2022/01/01 02:54:41;;;;;;;8.33;4.77;;;;;;;13.06;34.53;97708.97;5058156;28;20039;-71
2022/01/01 02:57:07;;;;;;;4.23;3.10;;;;;;;13.07;34.72;97715.91;5075013;28;20387;-69
2022/01/01 02:59:33;;;;;;;3.17;2.40;;;;;;;12.80;34.66;97676.41;5092867;28;20082;-71
2022/01/01 03:01:58;;;;;;;4.47;2.77;;;;;;;13.07;34.62;97699.94;5091443;28;20445;-70
2022/01/01 03:04:24;;;;;;;4.60;2.73;;;;;;;13.02;34.61;97697.09;5074735;28;20450;-70
2022/01/01 03:06:54;;;;;;;2.00;1.57;;;;;;;12.81;34.90;97660.19;5091713;28;20040;-69
2022/01/01 03:09:22;;;;;;;3.25;1.80;;;;;;;13.27;34.89;97694.38;5091962;28;20068;-69
2022/01/01 03:11:48;;;;;;;1.23;1.10;;;;;;;13.09;34.91;97702.38;5074870;28;20044;-69
2022/01/01 03:14:17;;;;;;;2.97;2.23;;;;;;;13.08;34.83;97698.09;5041251;28;20081;-71
2022/01/01 03:16:47;;;;;;;1.87;1.60;;;;;;;13.52;34.74;97697.78;5091495;28;21099;-71
2022/01/01 03:19:13;;;;;;;2.80;1.50;;;;;;;13.45;34.90;97695.19;5057935;28;20040;-70
2022/01/01 03:21:39;;;;;;;2.30;1.53;;;;;;;13.23;35.02;97696.69;5091022;28;20093;-72
2022/01/01 03:24:06;;;;;;;1.37;1.10;;;;;;;13.52;34.43;97698.63;5057399;28;20511;-70
2022/01/01 03:26:32;;;;;;;1.63;1.20;;;;;;;13.23;34.78;97694.03;5074287;28;20044;-72
2022/01/01 03:28:58;;;;;;;2.67;1.80;;;;;;;13.26;34.83;97696.25;5057121;28;20047;-71
2022/01/01 03:31:25;;;;;;;2.87;1.20;;;;;;;13.14;35.15;97687.38;5074418;28;20415;-71
2022/01/01 03:33:52;;;;;;;1.30;1.20;;;;;;;13.29;35.11;97687.81;5058352;28;20040;-71
2022/01/01 03:36:18;;;;;;;1.10;1.03;;;;;;;12.67;35.21;97624.06;5091404;28;20082;-70
2022/01/01 03:38:43;;;;;;;1.13;1.07;;;;;;;12.94;35.05;97649.44;5092191;28;20067;-69
2022/01/01 03:41:09;;;;;;;3.07;1.87;;;;;;;13.13;35.26;97683.06;5057491;28;20453;-70
2022/01/01 03:43:35;;;;;;;3.23;1.77;;;;;;;12.94;35.06;97649.44;5073992;28;20415;-69
2022/01/01 03:46:01;;;;;;;0.87;0.87;;;;;;;13.15;35.12;97686.31;5073745;28;20051;-70
2022/01/01 03:48:27;;;;;;;2.10;1.60;;;;;;;13.23;35.19;97683.38;5090570;28;20052;-70
2022/01/01 03:50:53;;;;;;;1.80;1.50;;;;;;;13.23;35.43;97680.72;5074006;28;20040;-70
2022/01/01 03:53:18;;;;;;;2.50;1.70;;;;;;;13.27;34.94;97681.06;5090448;28;20492;-70
2022/01/01 03:55:44;;;;;;;3.70;2.37;;;;;;;13.15;35.13;97670.34;5073301;28;20101;-70
2022/01/01 03:58:10;;;;;;;1.93;1.53;;;;;;;13.25;35.19;97680.47;5091347;28;20047;-69
2022/01/01 04:00:39;;;;;;;1.80;1.30;;;;;;;13.27;34.95;97681.06;5073454;28;20055;-72
2022/01/01 04:03:13;;;;;;;2.60;1.13;;;;;;;14.00;34.48;97674.59;5074073;28;20048;-69
2022/01/01 04:05:42;;;;;;;1.67;1.50;;;;;;;13.61;34.95;97687.66;5091591;28;20376;-69
2022/01/01 04:08:09;;;;;;;4.20;2.13;;;;;;;13.33;35.02;97646.31;5090170;28;20063;-68
2022/01/01 04:10:35;;;;;;;3.80;2.20;;;;;;;13.42;34.85;97676.97;5091545;28;20043;-69
2022/01/01 04:13:02;;;;;;;5.47;2.83;;;;;;;13.71;34.67;97680.75;5090101;28;20397;-71
2022/01/01 04:15:29;;;;;;;2.43;1.63;;;;;;;13.89;34.43;97678.03;5073361;28;20134;-70
2022/01/01 04:18:00;;;;;;;2.60;1.53;;;;;;;13.68;34.29;97677.69;5090407;28;20040;-70
2022/01/01 04:20:27;;;;;;;5.37;2.73;;;;;;;13.87;34.14;97676.63;5090302;28;20044;-69
2022/01/01 04:22:53;;;;;;;2.60;1.87;;;;;;;13.69;34.39;97641.97;5090151;28;20101;-70
2022/01/01 04:25:20;;;;;;;1.87;1.43;;;;;;;13.69;34.32;97682.81;5056254;28;20547;-71
2022/01/01 04:27:47;;;;;;;4.13;2.17;;;;;;;13.65;34.37;97648.81;5091002;28;20069;-70
2022/01/01 04:30:18;;;;;;;1.43;1.10;;;;;;;13.61;34.29;97693.00;5056386;28;20089;-71
2022/01/01 04:32:44;;;;;;;1.87;1.63;;;;;;;13.57;34.38;97682.75;5089771;28;20035;-70
2022/01/01 04:35:10;;;;;;;2.87;1.10;;;;;;;13.62;34.61;97675.94;5089362;28;20044;-69
2022/01/01 04:37:37;;;;;;;1.63;1.33;;;;;;;13.61;34.34;97683.09;5089293;28;20073;-68
2022/01/01 04:40:08;;;;;;;3.37;2.00;;;;;;;14.04;34.36;97693.66;5089478;28;20046;-69
2022/01/01 04:42:34;;;;;;;2.50;1.73;;;;;;;13.65;34.28;97691.50;5072569;28;20036;-70
2022/01/01 04:45:00;;;;;;;4.53;1.93;;;;;;;13.42;34.71;97671.66;5072217;28;20392;-69
2022/01/01 04:47:27;;;;;;;1.20;1.03;;;;;;;13.60;34.72;97686.81;5090810;28;20047;-68
2022/01/01 04:49:52;;;;;;;5.37;1.93;;;;;;;13.49;34.66;97685.72;5088748;28;20070;-67
2022/01/01 04:52:18;;;;;;;3.90;1.60;;;;;;;13.57;34.85;97684.59;5072207;28;20052;-69
2022/01/01 04:54:44;;;;;;;3.40;2.03;;;;;;;13.36;34.72;97669.09;5072075;28;20040;-68
2022/01/01 04:57:12;;;;;;;3.43;1.53;;;;;;;13.92;34.61;97692.75;5090117;28;20043;-70
2022/01/01 04:59:39;;;;;;;3.23;1.77;;;;;;;13.82;34.44;97696.00;5072317;28;20063;-67
2022/01/01 05:02:05;;;;;;;4.33;2.00;;;;;;;13.71;34.53;97690.59;5090052;28;20848;-68
2022/01/01 05:04:30;;;;;;;7.90;3.67;;;;;;;13.54;34.42;97693.06;5088697;28;20036;-70
2022/01/01 05:06:56;;;;;;;5.17;2.07;;;;;;;13.70;34.68;97705.75;5055607;28;20036;-69
2022/01/01 05:09:22;;;;;;;3.30;1.77;;;;;;;13.68;34.60;97696.38;5090432;28;20124;-68
2022/01/01 05:11:49;;;;;;;4.13;1.43;;;;;;;13.46;34.61;97674.69;5055374;28;20051;-69
2022/01/01 05:14:16;;;;;;;3.73;1.80;;;;;;;13.94;34.48;97707.53;5089032;28;20036;-68
2022/01/01 05:16:42;;;;;;;5.73;1.87;;;;;;;13.71;34.67;97696.75;5054953;28;20101;-69
2022/01/01 05:19:08;;;;;;;10.03;3.07;;;;;;;13.42;34.67;97678.84;5090358;28;20092;-68
2022/01/01 05:21:35;;;;;;;10.77;2.63;;;;;;;13.72;34.41;97703.69;5088852;28;20043;-70
2022/01/01 05:24:04;;;;;;;10.27;3.40;;;;;;;14.01;34.54;97699.44;5088776;28;20048;-71
2022/01/01 05:26:30;;;;;;;7.33;2.33;;;;;;;13.39;34.72;97666.75;5055678;28;20044;-72
2022/01/01 05:28:55;;;;;;;9.03;2.50;;;;;;;13.49;34.74;97709.72;5072254;28;20048;-70
2022/01/01 05:31:21;;;;;;;6.27;2.20;;;;;;;13.24;34.98;97682.31;5071883;28;20423;-71
2022/01/01 05:33:48;;;;;;;3.50;1.40;;;;;;;13.63;34.89;97713.06;5055292;28;20068;-72
2022/01/01 05:36:14;;;;;;;6.20;2.07;;;;;;;13.39;35.07;97706.75;5072052;28;20051;-70
2022/01/01 05:38:41;;;;;;;8.63;2.63;;;;;;;13.69;35.03;97711.31;5088702;28;20040;-72
2022/01/01 05:41:07;;;;;;;15.97;3.33;;;;;;;13.55;34.67;97718.69;5089825;28;20127;-69
2022/01/01 05:43:33;;;;;;;11.83;3.00;;;;;;;13.53;34.91;97726.91;5090038;28;20122;-72
2022/01/01 05:45:58;;;;;;;11.77;3.07;;;;;;;13.51;34.91;97717.50;5072300;28;20176;-69
2022/01/01 05:48:24;;;;;;;9.37;2.57;;;;;;;13.56;34.83;97728.34;5088647;28;20051;-71
2022/01/01 05:50:50;;;;;;;6.60;2.33;;;;;;;13.46;34.95;97731.50;5072060;28;20048;-71
2022/01/01 05:53:16;;;;;;;11.03;2.70;;;;;;;13.61;34.74;97725.78;5090048;28;20135;-72
2022/01/01 05:55:43;;;;;;;7.77;2.43;;;;;;;13.51;34.88;97728.97;5088665;28;20093;-71
2022/01/01 05:58:08;;;;;;;17.50;3.67;;;;;;;13.50;34.64;97738.03;5071765;28;20071;-72
2022/01/01 06:00:34;;;;;;;12.43;3.17;;;;;;;13.76;34.68;97734.22;5071857;28;20419;-72
2022/01/01 06:03:01;;;;;;;14.27;3.30;;;;;;;13.51;34.75;97702.31;5072287;28;20085;-71
2022/01/01 06:05:27;;;;;;;18.73;4.17;;;;;;;13.68;34.84;97731.03;5071618;28;20438;-70
2022/01/01 06:07:54;;;;;;;13.23;3.20;;;;;;;13.83;34.78;97728.81;5088220;28;20497;-72
2022/01/01 06:10:20;;;;;;;15.43;4.07;;;;;;;13.55;34.81;97732.84;5089670;28;20166;-72
2022/01/01 06:12:46;;;;;;;12.77;2.73;;;;;;;13.47;34.91;97738.47;5088252;28;20599;-70
2022/01/01 06:15:12;;;;;;;8.27;2.40;;;;;;;13.48;34.84;97729.41;5071653;28;20118;-70
2022/01/01 06:17:38;;;;;;;12.23;3.07;;;;;;;13.49;34.85;97732.91;5088477;28;20044;-71
2022/01/01 06:20:04;;;;;;;9.57;2.17;;;;;;;13.62;34.81;97729.28;5088790;28;20408;-72
2022/01/01 06:22:30;;;;;;;8.23;2.73;;;;;;;13.47;35.05;97716.31;5088901;28;20073;-69
2022/01/01 06:24:56;;;;;;;8.10;2.43;;;;;;;13.49;35.05;97732.91;5088235;28;20595;-70
2022/01/01 06:27:21;;;;;;;5.63;1.63;;;;;;;13.46;35.06;97728.03;5090953;28;20377;-71
2022/01/01 06:29:47;;;;;;;8.73;2.07;;;;;;;13.50;35.01;97731.84;5091939;28;20073;-69
2022/01/01 06:32:13;;;;;;;8.93;2.10;;;;;;;13.48;35.06;97726.75;5091868;28;20032;-70
2022/01/01 06:34:39;;;;;;;14.30;3.07;;;;;;;13.47;35.03;97735.78;5092143;28;20052;-67
2022/01/01 06:37:04;;;;;;;10.53;2.63;;;;;;;13.22;35.13;97695.03;5074734;28;20051;-70
2022/01/01 06:39:30;;;;;;;5.10;1.70;;;;;;;13.24;35.03;97700.16;5093298;28;20044;-69
2022/01/01 06:41:56;;;;;;;14.20;3.10;;;;;;;13.45;34.93;97721.84;5074921;28;20120;-67
2022/01/01 06:44:21;;;;;;;16.30;3.80;;;;;;;13.46;34.96;97736.84;5092880;28;20056;-70
2022/01/01 06:46:47;;;;;;;14.60;3.27;;;;;;;13.51;35.06;97739.63;5091623;28;20132;-66
2022/01/01 06:49:13;;;;;;;16.87;3.33;;;;;;;13.51;34.92;97731.63;5092621;28;20089;-68
2022/01/01 06:51:39;;;;;;;15.97;3.03;;;;;;;13.53;34.84;97734.06;5074730;28;20436;-68
2022/01/01 06:54:05;;;;;;;15.93;3.83;;;;;;;13.59;34.91;97731.34;5091508;28;20141;-68
2022/01/01 06:56:33;;;;;;;16.50;4.00;;;;;;;14.03;34.78;97729.34;5091812;28;20054;-68
2022/01/01 06:58:59;;;;;;;17.00;3.87;;;;;;;13.51;34.93;97741.50;5092874;28;20055;-69
2022/01/01 07:01:24;;;;;;;19.97;4.37;;;;;;;13.52;34.97;97746.63;5074455;28;20137;-69
2022/01/01 07:03:50;;;;;;;21.27;4.27;;;;;;;13.45;35.09;97737.88;5074531;28;20036;-71
2022/01/01 07:06:16;;;;;;;14.37;3.30;;;;;;;13.46;34.76;97738.69;5091419;28;20043;-70
2022/01/01 07:08:41;;;;;;;14.93;3.67;;;;;;;13.55;34.86;97734.69;5091299;28;20059;-73
2022/01/01 07:11:07;;;;;;;10.30;2.60;;;;;;;13.65;34.61;97735.00;5092395;28;20047;-72
2022/01/01 07:13:33;;;;;;;25.03;4.63;;;;;;;13.51;34.88;97730.84;5091481;28;20066;-72
2022/01/01 07:15:59;;;;;;;35.40;6.43;;;;;;;13.59;34.73;97738.56;5090944;28;20523;-73
2022/01/01 07:18:24;;;;;;;8.13;2.53;;;;;;;13.52;34.73;97743.94;5076093;28;20389;-72
2022/01/01 07:20:50;;;;;;;15.13;4.43;;;;;;;13.61;34.84;97736.44;5076758;28;20140;-72
2022/01/01 07:23:16;;;;;;;16.53;4.23;;;;;;;13.57;34.65;97737.94;5091009;28;20048;-73
2022/01/01 07:25:42;;;;;;;23.83;5.00;;;;;;;13.51;34.87;97728.19;5074141;28;20043;-71
2022/01/01 07:28:09;;;;;;;22.13;4.53;;;;;;;13.58;34.78;97737.72;5091973;28;20036;-73
2022/01/01 07:30:35;;;;;;;24.60;4.60;;;;;;;13.56;34.76;97742.47;5092258;28;20040;-70
2022/01/01 07:33:01;;;;;;;15.97;3.50;;;;;;;13.57;34.86;97741.44;5090966;28;20084;-71
2022/01/01 07:35:27;;;;;;;28.57;5.67;;;;;;;13.59;34.81;97739.34;5074219;28;20195;-71
2022/01/01 07:37:53;;;;;;;17.07;3.80;;;;;;;13.56;34.79;97729.13;5057079;28;20043;-71
2022/01/01 07:40:19;;;;;;;8.00;2.27;;;;;;;13.87;34.90;97736.13;5090637;28;20051;-71
2022/01/01 07:42:46;;;;;;;26.50;5.00;;;;;;;13.97;34.59;97739.09;5074201;28;20051;-70
2022/01/01 07:45:12;;;;;;;29.73;5.37;;;;;;;13.98;34.86;97750.56;5090646;28;20048;-71
2022/01/01 07:47:38;;;;;;;15.60;3.33;;;;;;;13.64;34.59;97740.53;5040572;28;20036;-73
2022/01/01 07:50:05;;;;;;;34.07;5.83;;;;;;;13.98;34.54;97753.22;5090580;28;20054;-72
2022/01/01 07:52:31;;;;;;;13.33;3.30;;;;;;;13.72;34.63;97748.22;5090184;28;20036;-68
2022/01/01 07:54:57;;;;;;;19.17;3.70;;;;;;;13.70;34.65;97742.31;5091484;28;20090;-67
2022/01/01 07:57:22;;;;;;;26.20;5.20;;;;;;;13.74;34.60;97746.16;5073705;28;20059;-68
2022/01/01 07:59:48;;;;;;;18.13;4.63;;;;;;;13.72;34.57;97741.03;5091644;28;20079;-68
2022/01/01 08:02:14;;;;;;;16.07;3.37;;;;;;;13.77;34.31;97748.38;5073466;28;20040;-68
2022/01/01 08:04:39;;;;;;;15.80;3.67;;;;;;;13.74;34.43;97740.81;5090434;28;20089;-70
2022/01/01 08:07:05;;;;;;;21.07;4.27;;;;;;;13.79;34.35;97752.47;5090575;28;20135;-68
2022/01/01 08:09:31;;;;;;;46.73;7.43;;;;;;;13.73;34.38;97752.53;5090099;28;20070;-68
2022/01/01 08:11:56;;;;;;;27.73;5.10;;;;;;;13.70;34.59;97753.00;5091421;28;20036;-69
2022/01/01 08:14:22;;;;;;;19.80;3.77;;;;;;;13.72;34.48;97757.06;5073272;28;20439;-76
2022/01/01 08:17:14;;;;;;;33.10;5.67;;;;;;;14.55;33.70;97763.34;5091726;28;20119;-72
2022/01/01 08:19:40;;;;;;;27.83;5.83;;;;;;;13.72;34.32;97754.38;5071927;28;20062;-75
2022/01/01 08:22:06;;;;;;;29.70;5.90;;;;;;;13.77;34.47;97732.38;5058278;28;20122;-78
2022/01/01 08:24:31;;;;;;;14.17;2.80;;;;;;;13.79;34.44;97754.31;5074522;28;20105;-78
2022/01/01 08:26:57;;;;;;;20.37;3.77;;;;;;;13.61;34.44;97722.31;5090615;28;20093;-79
2022/01/01 08:29:23;;;;;;;18.73;4.03;;;;;;;13.84;34.39;97762.47;5090216;28;20412;-81
2022/01/01 08:31:51;;;;;;;21.93;4.27;;;;;;;13.63;34.31;97720.22;5091288;28;20044;-72
2022/01/01 08:34:17;;;;;;;9.23;2.67;;;;;;;13.91;34.36;97772.03;5073745;28;20143;-78
2022/01/01 08:36:42;;;;;;;15.83;2.83;;;;;;;13.94;34.18;97760.91;5073333;28;20064;-74
2022/01/01 08:39:08;;;;;;;7.13;1.50;;;;;;;13.98;34.21;97769.25;5040705;28;20521;-80
2022/01/01 08:41:34;;;;;;;5.20;1.33;;;;;;;14.20;34.12;97768.56;5073620;28;20075;-78
2022/01/01 08:44:00;;;;;;;4.00;1.47;;;;;;;14.10;34.13;97764.81;5056691;28;20086;-78
2022/01/01 08:46:26;;;;;;;2.30;1.40;;;;;;;13.99;34.01;97770.91;5040042;28;20550;-78
2022/01/01 08:48:52;;;;;;;12.77;2.53;;;;;;;14.03;34.10;97769.41;5056222;28;20050;-79
2022/01/01 08:51:19;;;;;;;7.27;1.97;;;;;;;14.39;33.89;97759.47;5039047;28;20036;-81
2022/01/01 08:53:46;;;;;;;6.67;1.73;;;;;;;14.18;34.00;97761.78;5039504;28;20051;-74
2022/01/01 08:56:15;;;;;;;9.00;2.20;;;;;;;14.59;33.62;97765.34;5056421;28;20035;-75
2022/01/01 08:58:41;;;;;;;4.07;1.60;;;;;;;14.07;33.92;97750.03;5089949;28;20083;-79
2022/01/01 09:01:08;;;;;;;13.03;2.73;;;;;;;14.30;33.77;97765.38;5056505;28;20538;-78
2022/01/01 09:03:35;;;;;;;6.50;1.70;;;;;;;14.43;33.73;97746.47;5072816;28;20043;-77
2022/01/01 09:06:06;;;;;;;7.73;2.07;;;;;;;14.71;33.51;97760.84;5072998;28;20139;-78
2022/01/01 09:08:33;;;;;;;6.95;1.50;;;;;;;14.47;33.77;97752.97;5089645;28;20056;-81
2022/01/01 09:11:00;;;;;;;16.73;3.77;;;;;;;13.84;34.06;97720.56;5056620;28;20144;-75
2022/01/01 09:13:26;;;;;;;10.60;2.70;;;;;;;14.05;33.81;97759.31;5089476;28;20127;-76
2022/01/01 09:15:52;;;;;;;12.67;2.60;;;;;;;14.05;33.92;97745.97;5056508;28;20204;-82
2022/01/01 09:18:18;;;;;;;6.20;1.73;;;;;;;14.03;33.90;97750.72;5040101;28;20040;-80
2022/01/01 09:20:44;;;;;;;5.47;1.63;;;;;;;14.11;34.00;97745.06;5056562;28;20127;-79
2022/01/01 09:23:10;;;;;;;7.13;1.47;;;;;;;14.10;33.86;97754.13;5056414;28;20051;-77
2022/01/01 09:25:36;;;;;;;9.73;2.20;;;;;;;14.05;33.68;97751.31;5055901;28;20154;-75
2022/01/01 09:28:02;;;;;;;4.60;1.60;;;;;;;14.14;33.64;97749.94;5039651;28;20098;-77
2022/01/01 09:30:28;;;;;;;4.23;1.40;;;;;;;14.07;33.71;97747.38;5072061;28;20523;-73
2022/01/01 09:32:54;;;;;;;6.07;1.33;;;;;;;13.95;33.60;97732.34;5055547;28;20044;-79
2022/01/01 09:35:20;;;;;;;8.03;1.53;;;;;;;14.12;33.41;97749.34;5055766;28;20040;-77
2022/01/01 09:37:46;;;;;;;4.17;1.20;;;;;;;14.18;33.60;97745.78;5056175;28;20046;-79
2022/01/01 09:40:12;;;;;;;6.93;1.23;;;;;;;14.25;33.48;97742.03;5056305;28;20124;-80
2022/01/01 09:42:39;;;;;;;2.37;1.10;;;;;;;14.22;33.31;97725.63;5072385;28;20492;-81
2022/01/01 09:45:10;;;;;;;4.10;1.90;;;;;;;14.82;33.03;97743.22;5072067;28;20052;-81
2022/01/01 09:47:36;;;;;;;;;;;;;;;15.17;31.94;97744.03;5055716;28;20138;-80
2022/01/01 09:50:05;;;;;;;7.70;1.90;;;;;;;14.76;32.67;97734.25;5072167;28;19977;-78
2022/01/01 09:52:31;;;;;;;9.30;2.20;;;;;;;14.50;33.18;97744.53;5052788;28;20047;-79
2022/01/01 09:54:57;;;;;;;5.67;2.00;;;;;;;14.22;33.24;97730.94;5036936;28;20083;-80
2022/01/01 09:57:23;;;;;;;6.07;1.90;;;;;;;14.26;33.15;97730.31;5070975;28;20088;-77
2022/01/01 09:59:49;;;;;;;3.00;1.40;;;;;;;14.11;33.32;97702.34;5052182;28;20505;-80
2022/01/01 10:02:14;;;;;;;8.80;2.03;;;;;;;14.28;32.60;97740.75;5089502;28;20040;-77
2022/01/01 10:04:45;;;;;;;8.10;2.90;;;;;;;14.56;32.88;97728.41;5056208;28;20036;-79
2022/01/01 10:07:12;;;;;;;8.53;2.60;;;;;;;14.56;32.87;97733.75;5073718;28;20058;-81
2022/01/01 10:09:38;;;;;;;9.77;3.13;;;;;;;14.20;32.87;97723.16;5072946;28;20051;-80
2022/01/01 10:12:09;;;;;;;10.53;3.60;;;;;;;14.68;32.69;97723.09;5073343;28;20097;-78
2022/01/01 10:14:36;;;;;;;6.70;2.50;;;;;;;14.16;33.06;97700.63;5090186;28;20044;-80
2022/01/01 10:17:23;;;;;;;16.07;3.90;;;;;;;15.12;32.50;97735.91;5089931;28;20087;-78
2022/01/01 10:19:52;;;;;;;31.13;9.27;;;;;;;14.67;33.35;97724.09;5039119;28;20040;-73
2022/01/01 10:22:19;;;;;;;13.47;3.53;;;;;;;14.50;33.37;97729.31;5056239;28;20139;-74
2022/01/01 10:27:47;;;;;;;31.60;5.27;;;;;;;14.56;32.82;97698.22;5071638;28;20133;-73
2022/01/01 10:30:25;;;;;;;29.27;4.70;;;;;;;15.07;32.05;97733.91;5089452;28;20794;-71
2022/01/01 10:33:15;;;;;;;33.83;5.00;;;;;;;15.06;31.71;97734.16;5072583;28;20059;-73
2022/01/01 10:35:48;;;;;;;42.60;6.63;;;;;;;14.20;32.84;97725.00;5046242;28;20043;-72
2022/01/01 10:38:22;;;;;;;32.43;5.07;;;;;;;14.92;32.47;97722.88;5089791;28;20384;-70
2022/01/01 10:40:53;;;;;;;27.43;4.57;;;;;;;14.57;32.47;97718.53;5072166;28;20066;-75
2022/01/01 10:43:20;;;;;;;41.17;5.73;;;;;;;14.23;32.19;97728.06;5072582;28;20066;-71
2022/01/01 10:45:48;;;;;;;28.98;5.10;;;;;;;14.62;31.86;97735.50;5089381;28;20098;-71
2022/01/01 10:48:26;;;;;;;43.50;6.07;;;;;;;14.91;31.99;97725.78;5089245;28;20139;-71
2022/01/01 10:50:54;;;;;;;39.03;6.97;;;;;;;14.73;31.79;97736.56;5088948;28;20052;-67
2022/01/01 10:53:28;;;;;;;36.70;7.87;;;;;;;14.77;31.62;97703.00;5106205;28;20108;-72
2022/01/01 10:55:58;;;;;;;36.17;7.90;;;;;;;14.69;31.75;97743.41;5038581;28;20139;-71
2022/01/01 10:58:27;;;;;;;34.03;8.30;;;;;;;14.58;32.21;97707.63;5055049;28;20491;-70
2022/01/01 11:01:13;;;;;;;44.05;8.63;;;;;;;15.08;31.56;97729.41;5087010;28;20046;-70
2022/01/01 11:03:41;;;;;;;43.67;9.25;;;;;;;14.69;31.86;97722.03;5087520;28;20040;-71
2022/01/01 11:06:10;;;;;;;42.97;10.67;;;;;;;14.68;32.02;97726.56;5088644;28;20131;-70
2022/01/01 11:08:39;;;;;;;41.97;9.60;;;;;;;14.59;31.89;97721.81;5071962;28;20064;-71
2022/01/01 11:11:05;;;;;;;45.20;10.60;;;;;;;14.34;31.66;97731.84;5088833;28;20472;-75
2022/01/01 11:13:32;;;;;;;43.73;11.23;;;;;;;14.41;31.73;97736.03;5071067;28;20052;-74
2022/01/01 11:16:00;;;;;;;46.28;11.90;;;;;;;14.21;31.89;97730.13;5055094;28;20105;-73
2022/01/01 11:18:26;;;;;;;44.33;12.53;;;;;;;14.24;31.99;97739.56;5088960;28;20040;-76
2022/01/01 11:20:52;;;;;;;51.33;12.80;;;;;;;14.24;32.14;97728.88;5088292;28;20055;-75
2022/01/01 11:23:19;;;;;;;50.70;12.53;;;;;;;14.37;32.42;97742.06;5088813;28;20044;-75
2022/01/01 11:25:45;;;;;;;38.77;11.70;;;;;;;14.13;32.29;97740.31;5055265;28;20142;-75
2022/01/01 11:28:18;;;;;;;42.17;12.40;;;;;;;14.26;32.16;97708.13;5071814;28;20095;-74
2022/01/01 11:30:57;;;;;;;41.15;11.95;;;;;;;14.71;31.43;97728.78;5088494;28;20048;-75